.
Local / Fort Wayne - NE Ind.

U N D E R   C O N S T R U C T I O N

Local Weather
Fort Wayne – NE Indiana

Northern Indiana (IWX) Radar

Latest IWX NEXRAD
Base Reflectivity



Latest IWX NEXRAD
Base Velocity

Indiana-Ohio Visible Satellite

For infrared and water vapor imagery, see Great Lakes - Midwest.

Current Conditions

Recent report from the Fort Wayne International Airport

Oct 23, 2018 - 08:54 AM EDT / 2018.10.23 1254 UTC


The skies are mostly clear. The temperature is 43.0 F (6.1 C) and the dew point is 36.0 F (2.2 C), giving a relative humidity of 76%. The barometric pressure is 30.16 in. Hg (1021 hPa). The wind is from the NW (310 degrees) at 6 MPH (5 KT), and the visibility is 10 mile(s).

KFWA 231254Z 31005KT 10SM FEW030 06/02 A3016 RMK AO2 SLP216 T00610022

Local Weather — Contents

Local Weather — Links

CoCoRaHS
IN-AL-39
A2 Web Hosting
Creative Commons License
GoDaddy
search engine by freefind advanced

loaded 2018-10-23 09:55:36 • last modified 2017-02-11 13:27:36
Privacy PolicyDisclaimer
• wx.awcolley.com is powered by PmWiki v.2002016 •
• all content (unless otherwise noted) © 2018 A W Colley